Punta Cana, Dominican Republic
Current Conditions -  °F | °C
As of 8:00 PM on Wednesday 22 Oct 2014 (Local Time) from MDPC Reporting Station
Few Clouds Few Clouds  
Wind Chill: 77°   Ceiling: Unl
Heat Index: 78°   Visibility: 6mi
Dew Point: 72°   Wind: 3mph
Humidity: 83%   Direction: NA
Pressure: 29.91"   Gusts: NA
Location:  18.57°N, 68.36°W
Report Text: MDPC 230000Z VRB03KT 9999 FEW018 25/22 Q1013
Loading
Personal Weather Stations






























Interactive Weather Map
Tropical Storm Tracking
New forecast layout! Learn more

10-Day Weather Forecast

Advertisements
Track Severe Weather on mobile